Time;durP1;ratioP1;P1;durP2;ratioP2;P2;SDS_P1;SDS_P2;PMS_P1;PMS_P2;Temp;Humidity;BMP_temperature;BMP_pressure;BME280_temperature;BME280_humidity;BME280_pressure;Samples;Min_cycle;Max_cycle;Signal;HPM_P1;HPM_P2
2023/07/02 00:02:19;;;;;;;6.35;5.75;;;15.70;99.90;;;;;;5249214;28;20043;-69
2023/07/02 00:04:49;;;;;;;6.05;5.53;;;15.70;99.90;;;;;;5248927;28;20137;-69
2023/07/02 00:07:20;;;;;;;6.05;5.55;;;15.70;99.90;;;;;;5249132;28;20502;-70
2023/07/02 00:09:51;;;;;;;6.53;6.03;;;15.40;99.90;;;;;;5248901;28;20089;-70
2023/07/02 00:12:22;;;;;;;5.80;5.32;;;15.70;99.90;;;;;;5248755;28;20056;-70
2023/07/02 00:14:53;;;;;;;6.05;5.47;;;15.90;99.90;;;;;;5248787;28;20044;-70
2023/07/02 00:17:25;;;;;;;5.57;5.15;;;15.70;99.90;;;;;;5248948;28;20078;-70
2023/07/02 00:19:55;;;;;;;5.97;5.18;;;15.70;99.90;;;;;;5248664;28;20361;-69
2023/07/02 00:22:26;;;;;;;6.85;5.38;;;15.50;99.90;;;;;;5248658;28;20162;-69
2023/07/02 00:24:57;;;;;;;5.90;5.28;;;15.40;99.90;;;;;;5248650;28;20055;-69
2023/07/02 00:27:28;;;;;;;6.03;5.22;;;15.50;99.90;;;;;;5248500;28;20541;-70
2023/07/02 00:29:59;;;;;;;5.68;5.18;;;15.50;99.90;;;;;;5248346;28;20036;-70
2023/07/02 00:32:30;;;;;;;6.47;6.00;;;15.50;99.90;;;;;;5248311;28;20059;-69
2023/07/02 00:35:00;;;;;;;6.32;5.60;;;15.40;99.90;;;;;;5248375;28;20402;-70
2023/07/02 00:37:31;;;;;;;6.68;4.93;;;15.40;99.90;;;;;;5248262;28;20028;-69
2023/07/02 00:40:02;;;;;;;6.03;5.53;;;15.10;99.90;;;;;;5248158;28;20028;-69
2023/07/02 00:42:33;;;;;;;6.43;5.90;;;15.40;99.90;;;;;;5248247;28;20368;-69
2023/07/02 00:45:05;;;;;;;6.72;6.22;;;15.20;99.90;;;;;;5248059;28;20081;-70
2023/07/02 00:47:36;;;;;;;7.53;6.70;;;15.30;99.90;;;;;;5248091;28;20036;-70
2023/07/02 00:50:09;;;;;;;6.38;5.82;;;15.40;99.90;;;;;;5247878;28;20039;-70
2023/07/02 00:52:39;;;;;;;6.97;6.45;;;15.20;99.90;;;;;;5247552;28;20697;-70
2023/07/02 00:55:10;;;;;;;7.55;7.05;;;15.30;99.90;;;;;;5248050;28;20128;-69
2023/07/02 00:57:46;;;;;;;6.28;5.78;;;15.30;99.90;;;;;;5247988;28;20024;-70
2023/07/02 01:00:17;;;;;;;9.02;6.00;;;15.20;99.90;;;;;;5248060;28;20024;-70
2023/07/02 01:02:58;;;;;;;7.53;6.85;;;15.20;99.90;;;;;;5248223;28;20062;-69
2023/07/02 01:05:35;;;;;;;6.38;5.95;;;15.20;99.90;;;;;;5248043;28;20024;-70
2023/07/02 01:08:06;;;;;;;6.63;6.05;;;15.20;99.90;;;;;;5247922;28;20020;-70
2023/07/02 01:10:37;;;;;;;6.78;6.10;;;14.90;99.90;;;;;;5247628;28;20119;-70
2023/07/02 01:13:16;;;;;;;7.20;6.60;;;15.20;99.90;;;;;;5247513;28;20023;-69
2023/07/02 01:15:48;;;;;;;6.75;6.15;;;15.10;99.90;;;;;;5247660;28;20119;-70
2023/07/02 01:18:20;;;;;;;6.85;6.30;;;15.20;99.90;;;;;;5247539;28;20033;-70
2023/07/02 01:20:53;;;;;;;6.57;6.05;;;15.20;99.90;;;;;;5247007;28;20115;-69
2023/07/02 01:23:24;;;;;;;7.53;6.78;;;15.10;99.90;;;;;;5247525;28;20024;-70
2023/07/02 01:25:58;;;;;;;7.35;6.75;;;15.30;99.90;;;;;;5247655;28;20086;-70
2023/07/02 01:28:38;;;;;;;5.95;5.45;;;15.20;99.90;;;;;;5247454;28;20031;-70
2023/07/02 01:31:08;;;;;;;7.20;6.60;;;15.20;99.90;;;;;;5247357;28;20048;-70
2023/07/02 01:33:40;;;;;;;6.30;5.80;;;15.30;99.90;;;;;;5247475;28;20380;-70
2023/07/02 01:36:12;;;;;;;6.95;6.35;;;15.20;99.90;;;;;;5247345;28;20494;-70
2023/07/02 01:38:42;;;;;;;7.07;6.43;;;15.10;99.90;;;;;;5247170;28;20028;-70
2023/07/02 01:41:13;;;;;;;6.43;5.82;;;14.80;99.90;;;;;;5247172;28;20422;-70
2023/07/02 01:43:44;;;;;;;7.82;7.13;;;15.20;99.90;;;;;;5247146;28;20031;-70
2023/07/02 01:46:15;;;;;;;7.82;7.10;;;14.90;99.90;;;;;;5247175;28;20368;-70
2023/07/02 01:48:45;;;;;;;6.95;6.35;;;14.80;99.90;;;;;;5247156;28;20025;-69
2023/07/02 01:51:16;;;;;;;6.70;6.20;;;15.00;99.90;;;;;;5246553;28;20561;-70
2023/07/02 01:53:47;;;;;;;7.82;7.13;;;15.10;99.90;;;;;;5246966;28;20032;-69
2023/07/02 01:56:18;;;;;;;8.00;7.38;;;15.00;99.90;;;;;;5247140;28;20078;-70
2023/07/02 01:58:49;;;;;;;7.00;6.40;;;15.10;99.90;;;;;;5246984;28;20533;-69
2023/07/02 02:01:19;;;;;;;7.28;6.78;;;15.00;99.90;;;;;;5247062;28;20392;-70
2023/07/02 02:03:50;;;;;;;6.70;6.20;;;14.90;99.90;;;;;;5246941;28;20093;-69
2023/07/02 02:06:21;;;;;;;7.40;6.70;;;14.90;99.90;;;;;;5247018;28;20350;-70
2023/07/02 02:08:52;;;;;;;6.82;6.32;;;14.80;99.90;;;;;;5247007;28;20035;-69
2023/07/02 02:11:23;;;;;;;9.40;7.65;;;14.90;99.90;;;;;;5246853;28;20071;-70
2023/07/02 02:13:54;;;;;;;7.38;6.75;;;14.80;99.90;;;;;;5246969;28;20086;-70
2023/07/02 02:16:25;;;;;;;7.10;6.55;;;14.80;99.90;;;;;;5247001;28;20032;-70
2023/07/02 02:18:56;;;;;;;8.73;6.80;;;14.80;99.90;;;;;;5247136;28;20060;-70
2023/07/02 02:21:27;;;;;;;7.57;6.97;;;14.90;99.90;;;;;;5246800;28;20033;-70
2023/07/02 02:23:58;;;;;;;7.53;6.97;;;14.70;99.90;;;;;;5246895;28;20044;-70
2023/07/02 02:26:29;;;;;;;7.22;6.63;;;14.90;99.90;;;;;;5246933;28;20458;-70
2023/07/02 02:29:00;;;;;;;6.63;6.13;;;14.80;99.90;;;;;;5246792;28;20074;-69
2023/07/02 02:31:30;;;;;;;7.00;6.40;;;15.00;99.90;;;;;;5246691;28;20033;-69
2023/07/02 02:34:01;;;;;;;7.30;6.65;;;14.90;99.90;;;;;;5250244;28;20017;-70
2023/07/02 02:36:32;;;;;;;7.32;6.53;;;15.10;99.90;;;;;;5250741;28;20460;-70
2023/07/02 02:39:03;;;;;;;7.40;6.80;;;14.90;99.90;;;;;;5250785;28;20019;-70
2023/07/02 02:41:34;;;;;;;6.72;6.22;;;14.70;99.90;;;;;;5250751;28;20027;-69
2023/07/02 02:44:04;;;;;;;6.90;6.05;;;14.60;99.90;;;;;;5250658;28;20138;-70
2023/07/02 02:46:35;;;;;;;6.40;5.85;;;14.80;99.90;;;;;;5250597;28;20575;-70
2023/07/02 02:49:06;;;;;;;6.75;6.05;;;14.90;99.90;;;;;;5250585;28;20120;-70
2023/07/02 02:51:37;;;;;;;6.68;6.07;;;14.90;99.90;;;;;;5249952;28;20052;-70
2023/07/02 02:54:07;;;;;;;7.20;6.50;;;14.80;99.90;;;;;;5250395;28;20029;-70
2023/07/02 02:56:38;;;;;;;7.45;6.75;;;14.80;99.90;;;;;;5250422;28;20029;-70
2023/07/02 02:59:09;;;;;;;6.47;6.00;;;15.00;99.90;;;;;;5250216;28;20032;-70
2023/07/02 03:01:40;;;;;;;7.40;6.78;;;14.80;99.90;;;;;;5250206;28;20100;-70
2023/07/02 03:04:11;;;;;;;6.78;6.13;;;14.90;99.90;;;;;;5250142;28;20042;-70
2023/07/02 03:06:41;;;;;;;6.43;5.88;;;15.00;99.90;;;;;;5250164;28;20134;-70
2023/07/02 03:09:12;;;;;;;6.65;6.15;;;15.10;99.90;;;;;;5250109;28;20067;-70
2023/07/02 03:11:43;;;;;;;7.00;6.45;;;15.00;99.90;;;;;;5249780;28;20043;-69
2023/07/02 03:14:14;;;;;;;7.65;6.80;;;14.90;99.90;;;;;;5249850;28;20079;-70
2023/07/02 03:16:46;;;;;;;7.05;6.45;;;14.80;99.90;;;;;;5249954;28;20025;-69
2023/07/02 03:19:16;;;;;;;7.30;6.25;;;14.80;99.90;;;;;;5249929;28;20605;-69
2023/07/02 03:21:47;;;;;;;6.82;6.10;;;14.80;99.90;;;;;;5249808;28;20099;-70
2023/07/02 03:24:18;;;;;;;7.78;6.60;;;15.00;99.90;;;;;;5249771;28;20036;-70
2023/07/02 03:26:49;;;;;;;6.95;6.45;;;15.20;99.90;;;;;;5249841;28;20021;-70
2023/07/02 03:29:20;;;;;;;7.00;6.40;;;15.20;99.90;;;;;;5249890;28;20047;-72
2023/07/02 03:31:51;;;;;;;6.82;6.22;;;15.10;99.90;;;;;;5249828;28;20123;-70
2023/07/02 03:34:23;;;;;;;7.28;6.68;;;15.10;99.90;;;;;;5248411;28;20032;-69
2023/07/02 03:36:54;;;;;;;6.97;6.32;;;15.40;99.90;;;;;;5249793;28;20043;-69
2023/07/02 03:39:25;;;;;;;8.02;7.15;;;15.40;99.90;;;;;;5249535;28;20020;-69
2023/07/02 03:41:55;;;;;;;7.45;6.70;;;15.20;99.90;;;;;;5249478;28;20020;-71
2023/07/02 03:44:26;;;;;;;7.45;6.75;;;15.30;99.90;;;;;;5249202;28;20033;-70
2023/07/02 03:46:57;;;;;;;8.20;7.55;;;15.70;99.90;;;;;;5249425;28;20106;-69
2023/07/02 03:49:29;;;;;;;8.35;7.55;;;15.50;99.90;;;;;;5249315;28;20054;-70
2023/07/02 03:51:59;;;;;;;6.95;6.18;;;15.70;99.90;;;;;;5248816;28;20155;-70
2023/07/02 03:54:30;;;;;;;6.60;6.00;;;15.90;99.90;;;;;;5249422;28;20111;-70
2023/07/02 03:57:02;;;;;;;7.75;7.07;;;16.00;99.90;;;;;;5249263;28;20024;-70
2023/07/02 03:59:34;;;;;;;7.43;6.82;;;16.00;99.90;;;;;;5247880;28;20349;-69
2023/07/02 04:02:05;;;;;;;8.75;6.55;;;16.00;99.90;;;;;;5247826;28;20031;-70
2023/07/02 04:04:36;;;;;;;7.53;6.45;;;16.20;99.90;;;;;;5248997;28;20125;-70
2023/07/02 04:07:07;;;;;;;7.95;7.18;;;16.20;99.90;;;;;;5248964;28;20099;-70
2023/07/02 04:09:37;;;;;;;9.07;6.38;;;16.40;99.90;;;;;;5249125;28;20040;-70
2023/07/02 04:12:08;;;;;;;7.30;6.60;;;16.50;99.90;;;;;;5248981;28;20048;-69
2023/07/02 04:14:39;;;;;;;6.93;6.32;;;16.60;99.90;;;;;;5247539;28;20476;-70
2023/07/02 04:17:10;;;;;;;7.38;6.57;;;16.70;99.90;;;;;;5248653;28;20032;-70
2023/07/02 04:19:41;;;;;;;7.05;6.55;;;16.80;99.90;;;;;;5247460;28;20491;-70
2023/07/02 04:22:11;;;;;;;7.50;6.75;;;17.10;99.90;;;;;;5248437;28;20044;-69
2023/07/02 04:24:42;;;;;;;8.35;7.45;;;17.20;99.90;;;;;;5248507;28;20031;-70
2023/07/02 04:27:13;;;;;;;7.75;6.80;;;17.40;99.90;;;;;;5248465;28;20028;-70
2023/07/02 04:29:44;;;;;;;8.20;7.50;;;17.50;99.90;;;;;;5248413;28;20028;-69
2023/07/02 04:32:15;;;;;;;8.10;7.28;;;17.70;99.90;;;;;;5248667;28;20426;-69
2023/07/02 04:34:46;;;;;;;7.55;6.30;;;17.80;99.90;;;;;;5248438;28;20016;-70
2023/07/02 04:37:17;;;;;;;7.00;6.50;;;18.00;99.90;;;;;;5248318;28;20032;-70
2023/07/02 04:39:47;;;;;;;8.57;6.68;;;18.00;99.90;;;;;;5248272;28;20019;-70
2023/07/02 04:42:18;;;;;;;7.88;7.22;;;18.20;99.90;;;;;;5248393;28;20032;-70
2023/07/02 04:44:49;;;;;;;7.35;6.65;;;18.50;99.90;;;;;;5248318;28;20492;-70
2023/07/02 04:47:20;;;;;;;7.32;6.82;;;18.50;99.90;;;;;;5248370;28;20035;-70
2023/07/02 04:49:51;;;;;;;7.93;6.25;;;18.50;99.90;;;;;;5248343;28;20028;-70
2023/07/02 04:52:22;;;;;;;6.57;5.97;;;18.60;99.90;;;;;;5247727;28;20078;-70
2023/07/02 04:54:53;;;;;;;6.90;6.32;;;18.90;99.90;;;;;;5247441;28;20017;-70
2023/07/02 05:10:44;;;;;;;10.25;9.07;;;19.10;99.90;;;;;;5307594;27;20398;-69
2023/07/02 05:13:15;;;;;;;10.38;8.73;;;19.90;99.90;;;;;;5307389;28;20432;-70
2023/07/02 05:15:46;;;;;;;12.23;10.27;;;20.00;99.90;;;;;;5307419;28;20067;-69
2023/07/02 05:18:17;;;;;;;9.93;9.23;;;20.10;99.90;;;;;;5307381;28;20084;-69
2023/07/02 05:20:48;;;;;;;10.18;9.38;;;20.40;99.90;;;;;;5307289;28;20531;-70
2023/07/02 05:23:18;;;;;;;10.10;9.48;;;20.60;99.90;;;;;;5307309;28;20723;-70
2023/07/02 05:25:49;;;;;;;11.75;11.00;;;20.70;99.90;;;;;;5307129;28;20031;-71
2023/07/02 05:28:20;;;;;;;10.95;10.05;;;20.80;99.90;;;;;;5307095;28;20023;-70
2023/07/02 05:30:51;;;;;;;12.20;11.30;;;20.80;99.90;;;;;;5307095;28;20019;-70
2023/07/02 05:33:22;;;;;;;11.10;10.15;;;20.90;99.90;;;;;;5307131;28;20027;-70
2023/07/02 05:35:52;;;;;;;10.65;9.85;;;21.10;99.90;;;;;;5307067;28;20034;-69
2023/07/02 05:38:24;;;;;;;11.32;10.30;;;21.20;99.90;;;;;;5306719;28;20031;-71
2023/07/02 05:40:55;;;;;;;10.38;9.48;;;21.40;99.90;;;;;;5306800;28;20039;-70
2023/07/02 05:43:25;;;;;;;9.95;9.23;;;21.60;99.90;;;;;;5306800;28;20022;-70
2023/07/02 05:46:01;;;;;;;9.88;9.07;;;21.80;99.90;;;;;;5306714;28;20019;-71
2023/07/02 05:48:32;;;;;;;9.23;8.43;;;22.00;99.90;;;;;;5306803;28;20026;-70
2023/07/02 05:51:03;;;;;;;8.07;7.38;;;22.20;99.90;;;;;;5306619;28;20031;-70
2023/07/02 05:53:34;;;;;;;8.07;7.28;;;22.30;99.90;;;;;;5306670;28;20054;-69
2023/07/02 05:56:05;;;;;;;9.07;7.88;;;22.50;99.90;;;;;;5306470;28;20015;-70
2023/07/02 05:58:36;;;;;;;9.02;7.35;;;22.80;99.90;;;;;;5306337;28;20081;-70
2023/07/02 06:01:07;;;;;;;9.10;8.05;;;22.80;99.90;;;;;;5306309;28;20030;-70
2023/07/02 06:03:38;;;;;;;8.00;7.40;;;23.20;99.90;;;;;;5306336;28;20035;-69
2023/07/02 06:06:08;;;;;;;8.05;7.35;;;23.20;99.90;;;;;;5306403;28;20776;-69
2023/07/02 06:08:39;;;;;;;8.68;7.88;;;23.40;99.90;;;;;;5305932;28;20050;-70
2023/07/02 06:11:10;;;;;;;10.00;7.57;;;23.70;99.90;;;;;;5295117;28;20480;-69
2023/07/02 06:13:41;;;;;;;8.57;7.80;;;23.70;99.90;;;;;;5292028;28;20031;-71
2023/07/02 06:16:12;;;;;;;8.50;7.32;;;24.00;99.90;;;;;;5292009;28;20015;-69
2023/07/02 06:18:43;;;;;;;8.48;7.63;;;24.10;99.90;;;;;;5291927;28;20043;-70
2023/07/02 06:21:13;;;;;;;10.80;6.82;;;24.30;99.90;;;;;;5273632;28;20073;-70
2023/07/02 06:23:44;;;;;;;8.23;7.28;;;24.50;99.90;;;;;;5292110;28;20066;-70
2023/07/02 06:26:15;;;;;;;8.15;6.70;;;24.40;99.90;;;;;;5292060;28;20016;-70
2023/07/02 06:28:46;;;;;;;8.98;7.65;;;24.60;99.90;;;;;;5291722;28;20043;-69
2023/07/02 06:31:17;;;;;;;8.77;7.57;;;24.70;99.90;;;;;;5291699;28;20020;-70
2023/07/02 06:33:48;;;;;;;8.55;7.50;;;24.80;99.90;;;;;;5291748;28;20020;-70
2023/07/02 06:36:19;;;;;;;8.13;7.32;;;24.80;99.90;;;;;;5291736;28;20080;-70
2023/07/02 06:38:50;;;;;;;8.35;7.55;;;25.00;99.90;;;;;;5291355;28;20066;-70
2023/07/02 06:41:21;;;;;;;10.05;8.00;;;25.00;99.90;;;;;;5291338;28;20545;-70
2023/07/02 06:43:51;;;;;;;9.35;8.65;;;25.10;99.90;;;;;;5291492;28;20020;-69
2023/07/02 06:46:22;;;;;;;10.20;9.18;;;25.40;99.90;;;;;;5291381;28;20471;-70
2023/07/02 06:48:54;;;;;;;9.85;8.98;;;25.40;99.90;;;;;;5291262;28;20020;-70
2023/07/02 06:51:26;;;;;;;9.95;8.07;;;25.40;99.90;;;;;;5291390;28;20020;-70
2023/07/02 06:53:57;;;;;;;9.48;8.50;;;25.60;99.90;;;;;;5291289;28;20015;-70
2023/07/02 06:56:28;;;;;;;12.57;8.70;;;25.70;99.90;;;;;;5291327;28;20019;-70
2023/07/02 06:58:59;;;;;;;9.52;8.63;;;25.80;99.90;;;;;;5291080;28;20466;-71
2023/07/02 07:01:30;;;;;;;9.30;8.48;;;25.80;99.90;;;;;;5290792;28;20035;-70
2023/07/02 07:04:01;;;;;;;10.95;8.73;;;26.00;99.90;;;;;;5291049;28;20466;-70
2023/07/02 07:06:32;;;;;;;10.27;9.38;;;26.00;99.90;;;;;;5290865;28;20023;-70
2023/07/02 07:09:03;;;;;;;8.07;7.47;;;26.00;99.90;;;;;;5290573;28;20083;-71
2023/07/02 07:11:33;;;;;;;8.77;7.97;;;26.20;99.90;;;;;;5290832;28;20119;-70
2023/07/02 07:14:04;;;;;;;9.43;7.10;;;26.20;99.90;;;;;;5290709;28;20379;-71
2023/07/02 07:16:35;;;;;;;9.45;7.10;;;26.50;99.90;;;;;;5290678;28;20020;-70
2023/07/02 07:19:07;;;;;;;7.57;6.80;;;26.70;99.90;;;;;;5290636;28;20038;-70
2023/07/02 07:21:38;;;;;;;7.00;6.30;;;26.70;99.90;;;;;;5289754;28;20023;-71
2023/07/02 07:24:09;;;;;;;7.97;7.18;;;27.00;99.90;;;;;;5290537;28;20672;-70
2023/07/02 07:26:39;;;;;;;9.52;7.20;;;26.80;99.90;;;;;;5290551;28;20106;-70
2023/07/02 07:29:11;;;;;;;10.75;6.82;;;26.90;99.90;;;;;;5290357;28;20156;-70
2023/07/02 07:31:41;;;;;;;7.60;6.60;;;27.00;99.90;;;;;;5290416;28;20019;-70
2023/07/02 07:34:12;;;;;;;8.32;7.68;;;27.10;99.90;;;;;;5290443;28;20024;-70
2023/07/02 07:36:43;;;;;;;8.73;7.90;;;27.20;99.90;;;;;;5290389;28;20428;-70
2023/07/02 07:39:14;;;;;;;8.93;7.88;;;27.20;99.90;;;;;;5290382;28;20131;-70
2023/07/02 07:41:50;;;;;;;7.95;7.35;;;27.30;99.90;;;;;;5290426;28;20474;-70
2023/07/02 07:44:21;;;;;;;7.93;7.05;;;27.40;99.90;;;;;;5290199;28;20023;-70
2023/07/02 07:46:52;;;;;;;6.47;5.88;;;27.60;99.90;;;;;;5290200;28;20027;-70
2023/07/02 07:49:23;;;;;;;6.22;5.63;;;27.70;99.90;;;;;;5290069;28;20035;-70
2023/07/02 07:51:54;;;;;;;7.25;6.20;;;27.80;99.90;;;;;;5290084;28;20587;-70
2023/07/02 07:54:24;;;;;;;15.07;7.35;;;27.80;99.90;;;;;;5290159;28;20030;-70
2023/07/02 07:56:55;;;;;;;8.82;6.88;;;28.00;99.90;;;;;;5290242;28;20016;-70
2023/07/02 07:59:26;;;;;;;8.63;6.97;;;28.00;99.90;;;;;;5290058;28;20028;-70
2023/07/02 08:01:57;;;;;;;6.97;5.78;;;28.20;99.90;;;;;;5289824;28;20088;-70
2023/07/02 08:04:28;;;;;;;6.45;5.78;;;28.20;99.90;;;;;;5289878;28;20023;-70
2023/07/02 08:06:58;;;;;;;8.50;5.40;;;28.20;99.90;;;;;;5289846;28;20124;-70
2023/07/02 08:09:29;;;;;;;6.25;5.65;;;28.20;99.90;;;;;;5289546;28;20054;-70
2023/07/02 08:12:00;;;;;;;6.70;6.10;;;28.30;99.90;;;;;;5289879;28;20024;-71
2023/07/02 08:14:31;;;;;;;8.13;5.70;;;28.20;99.90;;;;;;5271437;28;20031;-71
2023/07/02 08:17:02;;;;;;;6.57;6.00;;;28.50;99.90;;;;;;5289629;28;20106;-70
2023/07/02 08:19:33;;;;;;;11.48;5.32;;;28.50;99.90;;;;;;5289576;28;20028;-70
2023/07/02 08:22:04;;;;;;;5.50;4.88;;;28.50;99.90;;;;;;5289384;28;20024;-70
2023/07/02 08:24:34;;;;;;;6.45;5.85;;;28.80;99.90;;;;;;5271362;28;20463;-71
2023/07/02 08:27:06;;;;;;;6.65;5.55;;;28.80;99.90;;;;;;5289536;28;20024;-70
2023/07/02 08:29:36;;;;;;;6.82;5.43;;;28.90;99.90;;;;;;5289280;28;20032;-70
2023/07/02 08:32:07;;;;;;;6.15;5.65;;;28.90;99.90;;;;;;5289394;28;20026;-70
2023/07/02 08:34:38;;;;;;;6.22;5.72;;;28.80;99.90;;;;;;5289130;28;20028;-70
2023/07/02 08:37:09;;;;;;;6.72;6.05;;;28.90;99.90;;;;;;5289248;28;20048;-71
2023/07/02 08:39:40;;;;;;;6.13;5.53;;;29.00;99.90;;;;;;5289016;28;20122;-70
2023/07/02 08:42:11;;;;;;;7.78;7.07;;;29.20;99.90;;;;;;5289292;28;20027;-70
2023/07/02 08:44:45;;;;;;;9.07;8.30;;;29.10;99.90;;;;;;5289004;28;20466;-70
2023/07/02 08:47:16;;;;;;;8.38;7.68;;;29.00;99.90;;;;;;5289130;28;20015;-70
2023/07/02 08:49:48;;;;;;;8.57;7.95;;;29.30;99.90;;;;;;5289103;28;20015;-71
2023/07/02 08:52:19;;;;;;;7.05;6.55;;;29.10;99.90;;;;;;5289170;28;20034;-70
2023/07/02 08:54:50;;;;;;;7.60;6.90;;;29.30;99.90;;;;;;5289150;28;20425;-70
2023/07/02 08:57:21;;;;;;;5.95;5.55;;;29.40;99.90;;;;;;5289024;28;20099;-71
2023/07/02 08:59:52;;;;;;;6.80;5.70;;;29.40;99.90;;;;;;5289061;28;20106;-70
2023/07/02 09:02:34;;;;;;;6.05;5.25;;;29.50;99.90;;;;;;5289202;28;20403;-72
2023/07/02 09:05:06;;;;;;;7.18;5.70;;;29.60;99.90;;;;;;5289016;28;20474;-70
2023/07/02 09:07:48;;;;;;;11.48;6.47;;;29.50;99.90;;;;;;5288974;28;20059;-71
2023/07/02 09:10:30;;;;;;;7.18;6.57;;;29.70;99.90;;;;;;5288815;28;20130;-70
2023/07/02 09:13:08;;;;;;;12.85;6.53;;;29.60;99.90;;;;;;5289003;28;20114;-70
2023/07/02 09:15:40;;;;;;;8.07;7.43;;;29.70;99.90;;;;;;5289151;28;20034;-70
2023/07/02 09:18:16;;;;;;;6.65;5.43;;;29.90;99.90;;;;;;5288847;28;20406;-70
2023/07/02 09:20:50;;;;;;;6.68;5.63;;;29.80;99.90;;;;;;5288884;28;20088;-71
2023/07/02 09:23:21;;;;;;;6.28;5.78;;;29.90;99.90;;;;;;5288817;28;20083;-71
2023/07/02 09:25:52;;;;;;;6.57;5.35;;;30.10;99.90;;;;;;5288871;28;20473;-70
2023/07/02 09:28:23;;;;;;;6.53;5.93;;;30.10;99.90;;;;;;5288775;28;20027;-70
2023/07/02 09:30:58;;;;;;;6.10;5.53;;;30.00;99.90;;;;;;5288619;28;20032;-70
2023/07/02 09:33:29;;;;;;;9.30;5.82;;;29.60;96.10;;;;;;5288651;28;20012;-70
2023/07/02 09:35:59;;;;;;;6.53;5.93;;;29.90;95.20;;;;;;5270395;28;20030;-70
2023/07/02 09:38:30;;;;;;;4.80;4.40;;;30.30;99.90;;;;;;5288404;28;20378;-70
2023/07/02 09:41:01;;;;;;;4.88;4.47;;;30.10;96.00;;;;;;5288486;28;20046;-70
2023/07/02 09:43:32;;;;;;;11.07;5.82;;;30.00;91.50;;;;;;5288532;28;20027;-70
2023/07/02 09:46:03;;;;;;;7.38;6.10;;;30.10;89.30;;;;;;5272619;28;20039;-70
2023/07/02 09:48:35;;;;;;;4.85;4.45;;;30.30;91.20;;;;;;5292599;28;20028;-70
2023/07/02 09:51:06;;;;;;;6.22;5.63;;;30.30;93.80;;;;;;5292368;28;20019;-71
2023/07/02 09:53:37;;;;;;;7.57;6.95;;;30.30;89.00;;;;;;5292395;28;20501;-70
2023/07/02 09:56:09;;;;;;;8.18;6.82;;;30.30;87.70;;;;;;5292400;28;20026;-70
2023/07/02 09:58:39;;;;;;;8.45;7.95;;;30.50;90.40;;;;;;5273887;28;20114;-70
2023/07/02 10:01:10;;;;;;;8.85;8.05;;;30.40;87.30;;;;;;5292203;28;20164;-70
2023/07/02 10:03:41;;;;;;;9.68;8.93;;;30.50;85.20;;;;;;5292219;28;20067;-70
2023/07/02 10:06:12;;;;;;;8.68;7.97;;;30.40;86.60;;;;;;5292634;28;20096;-70
2023/07/02 10:08:53;;;;;;;12.07;11.18;;;30.60;85.30;;;;;;5291926;28;20627;-70
2023/07/02 10:11:35;;;;;;;9.77;8.65;;;30.50;80.90;;;;;;5292020;28;20098;-70
2023/07/02 10:14:05;;;;;;;11.70;7.60;;;30.60;82.00;;;;;;5292059;28;20019;-70
2023/07/02 10:17:02;;;;;;;6.93;6.32;;;30.50;82.40;;;;;;5291991;28;20031;-70
2023/07/02 10:19:33;;;;;;;7.30;6.68;;;30.70;81.70;;;;;;5269295;28;20517;-70
2023/07/02 10:22:07;;;;;;;6.50;6.00;;;30.60;81.40;;;;;;5292236;28;20031;-71
2023/07/02 10:24:38;;;;;;;7.78;4.93;;;30.60;82.00;;;;;;5292049;28;20027;-70
2023/07/02 10:27:08;;;;;;;7.15;4.65;;;30.50;78.40;;;;;;5273770;28;20020;-70
2023/07/02 10:29:49;;;;;;;5.72;4.82;;;30.70;80.50;;;;;;5291907;28;20040;-70
2023/07/02 10:32:30;;;;;;;4.82;4.43;;;30.70;79.90;;;;;;5291940;28;20055;-70
2023/07/02 10:35:12;;;;;;;5.35;4.85;;;30.60;76.40;;;;;;5291821;28;20024;-70
2023/07/02 10:37:44;;;;;;;4.70;4.40;;;30.70;77.70;;;;;;5291782;28;20340;-70
2023/07/02 10:40:15;;;;;;;5.63;5.00;;;31.00;77.20;;;;;;5291583;28;20122;-70
2023/07/02 10:42:50;;;;;;;6.18;4.85;;;31.10;79.60;;;;;;5291570;28;20126;-70
2023/07/02 10:45:30;;;;;;;5.30;4.90;;;31.40;79.40;;;;;;5291595;28;20489;-70
2023/07/02 10:48:03;;;;;;;5.40;5.00;;;31.30;77.20;;;;;;5291494;28;20103;-70
2023/07/02 10:50:34;;;;;;;11.95;6.18;;;31.00;75.30;;;;;;5291360;28;20035;-71
2023/07/02 10:53:05;;;;;;;5.70;5.30;;;31.10;76.00;;;;;;5291328;28;20054;-70
2023/07/02 10:55:36;;;;;;;7.00;6.50;;;31.10;74.40;;;;;;5291254;28;20470;-70
2023/07/02 10:58:09;;;;;;;6.35;5.95;;;31.00;74.20;;;;;;5291015;28;20030;-72
2023/07/02 11:00:51;;;;;;;8.13;6.55;;;31.10;76.10;;;;;;5290878;28;20114;-70
2023/07/02 11:03:25;;;;;;;6.70;6.18;;;31.10;74.60;;;;;;5290997;28;20024;-70
2023/07/02 11:05:56;;;;;;;6.90;6.18;;;31.20;73.50;;;;;;5291033;28;20043;-70
2023/07/02 11:08:36;;;;;;;7.43;6.78;;;31.20;73.10;;;;;;5290767;28;20031;-70
2023/07/02 11:11:08;;;;;;;7.75;6.88;;;31.20;72.70;;;;;;5290886;28;20478;-70
2023/07/02 11:13:46;;;;;;;9.02;7.95;;;31.20;72.10;;;;;;5290861;28;20030;-70
2023/07/02 11:16:29;;;;;;;7.40;6.78;;;31.30;73.10;;;;;;5290773;28;20137;-70
2023/07/02 11:19:10;;;;;;;7.28;5.75;;;31.10;70.90;;;;;;5272391;28;20049;-70
2023/07/02 11:21:55;;;;;;;14.18;7.32;;;31.40;72.50;;;;;;5290538;28;20055;-70
2023/07/02 11:24:34;;;;;;;7.38;6.82;;;31.60;76.10;;;;;;5290721;28;20042;-70
2023/07/02 11:27:06;;;;;;;6.78;6.18;;;31.40;73.10;;;;;;5290506;28;20366;-70
2023/07/02 11:29:37;;;;;;;7.25;6.68;;;31.30;75.30;;;;;;5290353;28;20032;-70
2023/07/02 11:32:11;;;;;;;6.55;6.10;;;31.20;71.50;;;;;;5290430;28;20019;-70
2023/07/02 11:34:42;;;;;;;7.13;6.70;;;31.30;72.80;;;;;;5290416;28;20027;-71
2023/07/02 11:37:12;;;;;;;6.72;6.22;;;31.50;75.30;;;;;;5290430;28;20020;-70
2023/07/02 11:39:43;;;;;;;6.95;6.35;;;31.40;71.50;;;;;;5290228;28;20035;-70
2023/07/02 11:42:14;;;;;;;7.63;6.55;;;31.50;72.70;;;;;;5290314;28;20024;-70
2023/07/02 11:44:45;;;;;;;6.00;5.50;;;31.30;72.10;;;;;;5290345;28;20487;-70
2023/07/02 11:47:16;;;;;;;6.72;6.22;;;31.40;71.20;;;;;;5290457;28;20051;-71
2023/07/02 11:49:46;;;;;;;7.38;5.93;;;31.60;72.80;;;;;;5290247;28;20077;-70
2023/07/02 11:52:17;;;;;;;7.60;6.03;;;31.60;70.70;;;;;;5290094;28;20083;-70
2023/07/02 11:54:48;;;;;;;7.50;6.03;;;31.50;68.80;;;;;;5289939;28;20023;-70
2023/07/02 11:57:21;;;;;;;6.40;5.88;;;31.60;70.30;;;;;;5289945;28;20027;-70
2023/07/02 11:59:52;;;;;;;6.57;6.10;;;31.70;72.90;;;;;;5289655;28;20039;-71
2023/07/02 12:02:23;;;;;;;6.07;5.55;;;31.70;72.20;;;;;;5289733;28;20039;-70
2023/07/02 12:04:54;;;;;;;7.63;5.68;;;31.80;68.80;;;;;;5289905;28;20050;-70
2023/07/02 12:07:25;;;;;;;5.95;5.55;;;31.80;69.00;;;;;;5289614;28;20493;-71
2023/07/02 12:09:56;;;;;;;6.95;6.35;;;31.90;70.20;;;;;;5289020;28;20035;-70
2023/07/02 12:12:26;;;;;;;6.20;5.70;;;31.70;69.40;;;;;;5271335;28;20024;-70
2023/07/02 12:14:57;;;;;;;6.25;5.78;;;31.90;70.00;;;;;;5289522;28;20024;-70
2023/07/02 12:17:28;;;;;;;6.55;5.95;;;32.00;71.80;;;;;;5289531;28;20102;-70
2023/07/02 12:19:59;;;;;;;6.25;5.75;;;31.80;68.10;;;;;;5289572;28;20061;-70
2023/07/02 12:22:30;;;;;;;5.43;4.97;;;31.90;69.50;;;;;;5289597;28;20084;-70
2023/07/02 12:25:00;;;;;;;7.15;5.97;;;31.70;68.10;;;;;;5289615;28;20023;-70
2023/07/02 12:27:31;;;;;;;6.78;6.35;;;31.90;70.10;;;;;;5289416;28;20427;-70
2023/07/02 12:30:02;;;;;;;6.80;6.20;;;31.90;70.10;;;;;;5289340;28;20026;-70
2023/07/02 12:32:33;;;;;;;14.93;6.97;;;32.00;71.40;;;;;;5289484;28;20038;-70
2023/07/02 12:35:05;;;;;;;7.10;6.47;;;32.00;70.10;;;;;;5289454;28;20542;-70
2023/07/02 12:37:43;;;;;;;7.05;6.35;;;31.90;72.10;;;;;;5289468;28;20032;-70
2023/07/02 12:40:15;;;;;;;6.93;6.07;;;32.00;73.00;;;;;;5289116;28;20117;-70
2023/07/02 12:42:47;;;;;;;5.97;5.57;;;32.00;71.10;;;;;;5289189;28;20264;-70
2023/07/02 12:45:18;;;;;;;7.18;6.45;;;32.20;73.10;;;;;;5289214;28;20146;-70
2023/07/02 12:47:49;;;;;;;6.57;6.05;;;32.20;72.80;;;;;;5289618;28;20644;-70
2023/07/02 12:50:20;;;;;;;6.45;5.90;;;32.00;72.20;;;;;;5271117;28;20110;-70
2023/07/02 12:52:50;;;;;;;5.47;4.97;;;32.10;73.70;;;;;;5289218;28;20024;-70
2023/07/02 12:55:21;;;;;;;8.10;5.15;;;32.00;70.10;;;;;;5289253;28;20030;-70
2023/07/02 12:57:52;;;;;;;6.47;5.93;;;32.00;70.60;;;;;;5289134;28;20015;-70
2023/07/02 13:00:23;;;;;;;5.93;5.32;;;31.80;70.30;;;;;;5288874;28;20135;-70
2023/07/02 13:02:54;;;;;;;6.05;5.55;;;31.80;68.30;;;;;;5289009;28;20039;-70
2023/07/02 13:05:25;;;;;;;6.50;6.03;;;32.00;68.10;;;;;;5289064;28;20612;-70
2023/07/02 13:07:56;;;;;;;6.03;5.50;;;31.80;66.10;;;;;;5288918;28;20020;-70
2023/07/02 13:10:27;;;;;;;6.38;5.78;;;32.00;67.90;;;;;;5288901;28;20048;-68
2023/07/02 13:12:57;;;;;;;7.05;6.55;;;31.90;65.90;;;;;;5288985;28;20023;-70
2023/07/02 13:15:28;;;;;;;6.22;5.75;;;31.70;67.60;;;;;;5288933;28;20028;-70
2023/07/02 13:17:59;;;;;;;6.20;5.60;;;31.70;67.00;;;;;;5288903;28;20057;-70
2023/07/02 13:20:30;;;;;;;5.97;5.57;;;31.70;66.60;;;;;;5290073;28;20027;-71
2023/07/02 13:23:03;;;;;;;6.15;5.75;;;31.80;67.50;;;;;;5293122;28;20534;-70